createdAt,value
2019-02-15T00:02:32.121Z,99.90
2019-02-15T00:05:03.254Z,99.90
2019-02-15T00:07:34.560Z,99.90
2019-02-15T00:10:06.132Z,99.90
2019-02-15T00:12:37.529Z,99.90
2019-02-15T00:15:08.691Z,99.90
2019-02-15T00:18:11.022Z,99.90
2019-02-15T00:20:47.688Z,99.90
2019-02-15T00:23:18.853Z,99.90
2019-02-15T00:25:49.935Z,99.90
2019-02-15T00:28:21.050Z,99.90
2019-02-15T00:30:52.156Z,99.90
2019-02-15T00:33:23.684Z,99.90
2019-02-15T00:35:54.787Z,99.90
2019-02-15T00:38:25.913Z,99.90
2019-02-15T00:40:57.098Z,99.90
2019-02-15T00:43:28.224Z,99.90
2019-02-15T00:46:24.087Z,99.90
2019-02-15T00:48:55.583Z,99.90
2019-02-15T00:51:44.088Z,99.90
2019-02-15T00:54:29.663Z,99.90
2019-02-15T00:57:22.957Z,99.90
2019-02-15T01:00:08.091Z,99.90
2019-02-15T01:03:13.384Z,99.90
2019-02-15T01:06:06.285Z,99.90
2019-02-15T01:08:56.298Z,99.90
2019-02-15T01:11:34.272Z,99.90
2019-02-15T01:14:05.336Z,99.90
2019-02-15T01:16:36.522Z,99.90
2019-02-15T01:19:07.623Z,99.90
2019-02-15T01:21:38.742Z,99.90
2019-02-15T01:24:09.894Z,99.90
2019-02-15T01:26:50.422Z,99.90
2019-02-15T01:29:47.964Z,99.90
2019-02-15T01:32:44.280Z,99.90
2019-02-15T01:35:46.345Z,99.90
2019-02-15T01:38:39.068Z,99.90
2019-02-15T01:41:23.716Z,99.90
2019-02-15T01:44:02.609Z,99.90
2019-02-15T01:46:52.660Z,99.90
2019-02-15T01:49:23.775Z,99.90
2019-02-15T01:51:54.975Z,99.90
2019-02-15T01:54:26.041Z,99.90
2019-02-15T01:56:57.131Z,99.90
2019-02-15T01:59:28.225Z,99.90
2019-02-15T02:01:59.295Z,99.90
2019-02-15T02:04:30.390Z,99.90
2019-02-15T02:07:01.528Z,99.90
2019-02-15T02:09:32.625Z,99.90
2019-02-15T02:12:04.234Z,99.90
2019-02-15T02:14:35.363Z,99.90
2019-02-15T02:17:06.564Z,99.90
2019-02-15T02:19:37.710Z,99.90
2019-02-15T02:22:08.792Z,99.90
2019-02-15T02:24:39.963Z,99.90
2019-02-15T02:27:11.063Z,99.90
2019-02-15T02:29:42.180Z,99.90
2019-02-15T02:32:13.265Z,99.90
2019-02-15T02:34:44.395Z,99.90
2019-02-15T02:37:15.489Z,99.90
2019-02-15T02:39:46.580Z,99.90
2019-02-15T02:42:18.031Z,99.90
2019-02-15T02:44:49.149Z,99.90
2019-02-15T02:47:20.237Z,99.90
2019-02-15T02:49:51.308Z,99.90
2019-02-15T02:52:22.402Z,99.90
2019-02-15T02:54:53.489Z,99.90
2019-02-15T02:57:24.596Z,99.90
2019-02-15T02:59:55.705Z,99.90
2019-02-15T03:02:26.756Z,99.90
2019-02-15T03:04:57.922Z,99.90
2019-02-15T03:07:28.995Z,99.90
2019-02-15T03:10:00.296Z,99.90
2019-02-15T03:12:31.329Z,99.90
2019-02-15T03:15:02.443Z,99.90
2019-02-15T03:17:34.606Z,99.90
2019-02-15T03:20:05.953Z,99.90
2019-02-15T03:22:37.135Z,99.90
2019-02-15T03:25:08.254Z,99.90
2019-02-15T03:27:39.383Z,99.90
2019-02-15T03:30:10.681Z,99.90
2019-02-15T03:32:41.792Z,99.90
2019-02-15T03:35:13.051Z,99.90
2019-02-15T03:37:58.360Z,99.90
2019-02-15T03:40:44.212Z,99.90
2019-02-15T03:43:15.448Z,99.90
2019-02-15T03:45:47.388Z,99.90
2019-02-15T03:48:18.587Z,99.90
2019-02-15T03:50:49.700Z,99.90
2019-02-15T03:53:20.788Z,99.90
2019-02-15T03:55:52.056Z,99.90
2019-02-15T03:58:23.272Z,99.90
2019-02-15T04:00:54.393Z,99.90
2019-02-15T04:03:25.441Z,99.90
2019-02-15T04:05:56.540Z,99.90
2019-02-15T04:08:27.629Z,99.90
2019-02-15T04:10:58.736Z,99.90
2019-02-15T04:13:29.925Z,99.90
2019-02-15T04:16:01.183Z,99.90
2019-02-15T04:18:32.274Z,99.90
2019-02-15T04:21:03.413Z,99.90
2019-02-15T04:23:34.504Z,99.90
2019-02-15T04:26:05.579Z,99.90
2019-02-15T04:28:36.742Z,99.90
2019-02-15T04:31:09.262Z,99.90
2019-02-15T04:33:40.437Z,99.90
2019-02-15T04:36:11.543Z,99.90
2019-02-15T04:38:42.609Z,99.90
2019-02-15T04:41:13.757Z,99.90
2019-02-15T04:43:44.820Z,99.90
2019-02-15T04:46:15.925Z,99.90
2019-02-15T04:48:47.007Z,99.90
2019-02-15T04:51:18.097Z,99.90
2019-02-15T04:53:49.204Z,99.90
2019-02-15T04:56:20.281Z,99.90
2019-02-15T04:58:51.354Z,99.90
2019-02-15T05:01:22.495Z,99.90
2019-02-15T05:03:53.545Z,99.90
2019-02-15T05:06:25.054Z,99.90
2019-02-15T05:08:56.194Z,99.90
2019-02-15T05:11:27.387Z,99.90
2019-02-15T05:13:58.543Z,99.90
2019-02-15T05:16:30.232Z,99.90
2019-02-15T05:19:01.474Z,99.90
2019-02-15T05:21:34.512Z,99.90
2019-02-15T05:24:06.631Z,99.90
2019-02-15T05:26:41.937Z,99.90
2019-02-15T05:29:13.717Z,99.90
2019-02-15T05:31:48.136Z,99.90
2019-02-15T05:34:24.933Z,99.90
2019-02-15T05:36:56.268Z,99.90
2019-02-15T05:39:27.995Z,99.90
2019-02-15T05:41:59.840Z,99.90
2019-02-15T05:44:30.979Z,99.90
2019-02-15T05:47:02.268Z,99.90
2019-02-15T05:49:33.428Z,99.90
2019-02-15T05:52:04.755Z,99.90
2019-02-15T05:54:37.562Z,99.90
2019-02-15T05:57:09.662Z,99.90
2019-02-15T05:59:41.236Z,99.90
2019-02-15T06:02:12.867Z,99.90
2019-02-15T06:04:44.427Z,99.90
2019-02-15T06:07:15.790Z,99.90
2019-02-15T06:09:47.870Z,99.90
2019-02-15T06:12:19.087Z,99.90
2019-02-15T06:14:53.150Z,99.90
2019-02-15T06:17:24.720Z,99.90
2019-02-15T06:19:56.505Z,99.90
2019-02-15T06:22:28.022Z,99.90
2019-02-15T06:25:02.342Z,99.90
2019-02-15T06:27:33.460Z,99.90
2019-02-15T06:30:04.687Z,99.90
2019-02-15T06:32:36.363Z,99.90
2019-02-15T06:35:07.598Z,99.90
2019-02-15T06:37:38.765Z,99.90
2019-02-15T06:40:09.938Z,99.90
2019-02-15T06:42:41.274Z,99.90
2019-02-15T06:45:12.775Z,99.90
2019-02-15T06:47:43.935Z,99.90
2019-02-15T06:50:16.202Z,99.90
2019-02-15T06:52:47.436Z,99.90
2019-02-15T06:55:18.549Z,99.90
2019-02-15T06:57:49.725Z,99.90
2019-02-15T07:00:38.936Z,99.90
2019-02-15T07:03:47.336Z,99.90
2019-02-15T07:06:18.547Z,99.90
2019-02-15T07:08:49.756Z,99.90
2019-02-15T07:11:20.897Z,99.90
2019-02-15T07:13:52.264Z,99.90
2019-02-15T07:16:23.453Z,99.90
2019-02-15T07:18:54.609Z,99.90
2019-02-15T07:21:25.872Z,99.90
2019-02-15T07:23:57.105Z,99.90
2019-02-15T07:26:28.379Z,99.90
2019-02-15T07:28:59.556Z,99.90
2019-02-15T07:31:30.786Z,99.90
2019-02-15T07:34:01.983Z,99.90
2019-02-15T07:36:33.207Z,99.90
2019-02-15T07:39:05.553Z,99.90
2019-02-15T07:41:36.811Z,99.90
2019-02-15T07:44:08.142Z,99.90
2019-02-15T07:46:39.365Z,99.90
2019-02-15T07:49:10.621Z,99.90
2019-02-15T07:51:41.927Z,99.90
2019-02-15T07:54:13.043Z,99.90
2019-02-15T07:56:44.282Z,99.90
2019-02-15T07:59:15.513Z,99.90
2019-02-15T08:01:46.780Z,99.90
2019-02-15T08:04:17.937Z,99.90
2019-02-15T08:06:49.072Z,99.90
2019-02-15T08:09:20.252Z,99.90
2019-02-15T08:11:51.521Z,99.90
2019-02-15T08:14:22.825Z,99.90
2019-02-15T08:16:54.282Z,99.90
2019-02-15T08:19:25.524Z,99.90
2019-02-15T08:21:56.764Z,99.90
2019-02-15T08:24:27.917Z,99.90
2019-02-15T08:26:59.192Z,99.90
2019-02-15T08:29:30.564Z,99.90
2019-02-15T08:32:01.995Z,99.90
2019-02-15T08:34:33.305Z,99.90
2019-02-15T08:37:04.748Z,99.90
2019-02-15T08:39:36.427Z,99.90
2019-02-15T08:42:07.710Z,99.90
2019-02-15T08:44:38.870Z,99.90
2019-02-15T08:47:10.347Z,99.90
2019-02-15T08:49:41.578Z,99.90
2019-02-15T08:52:12.886Z,99.90
2019-02-15T08:54:44.130Z,99.90
2019-02-15T08:57:15.503Z,99.90
2019-02-15T08:59:46.623Z,99.90
2019-02-15T09:02:24.876Z,99.90
2019-02-15T09:04:55.929Z,99.90
2019-02-15T09:07:27.026Z,99.90
2019-02-15T09:09:58.073Z,99.90
2019-02-15T09:12:29.142Z,99.90
2019-02-15T09:15:00.405Z,99.90
2019-02-15T09:17:31.541Z,99.90
2019-02-15T09:20:02.631Z,99.90
2019-02-15T09:22:33.722Z,99.90
2019-02-15T09:25:04.848Z,99.90
2019-02-15T09:27:53.763Z,99.90
2019-02-15T09:30:26.051Z,99.90
2019-02-15T09:32:57.415Z,99.90
2019-02-15T09:35:28.793Z,99.90
2019-02-15T09:38:00.044Z,99.90
2019-02-15T09:40:31.110Z,99.90
2019-02-15T09:43:02.219Z,99.90
2019-02-15T09:45:33.582Z,99.90
2019-02-15T09:48:04.888Z,99.90
2019-02-15T09:50:36.050Z,99.90
2019-02-15T09:53:07.206Z,99.90
2019-02-15T09:55:38.245Z,99.90
2019-02-15T09:58:09.652Z,99.90
2019-02-15T10:00:41.080Z,99.90
2019-02-15T10:03:12.604Z,99.90
2019-02-15T10:05:43.798Z,99.90
2019-02-15T10:08:15.007Z,99.90
2019-02-15T10:10:46.187Z,99.90
2019-02-15T10:13:17.411Z,99.90
2019-02-15T10:15:48.675Z,99.90
2019-02-15T10:18:19.793Z,99.90
2019-02-15T10:20:51.122Z,99.90
2019-02-15T10:23:22.420Z,99.90
2019-02-15T10:25:53.935Z,99.90
2019-02-15T10:28:25.252Z,99.90
2019-02-15T10:30:56.415Z,99.90
2019-02-15T10:33:27.486Z,99.90
2019-02-15T10:35:58.601Z,99.90
2019-02-15T10:38:29.699Z,99.90
2019-02-15T10:41:01.345Z,99.90
2019-02-15T10:43:32.884Z,99.90
2019-02-15T10:46:04.059Z,99.90
2019-02-15T10:48:35.092Z,99.90
2019-02-15T10:51:06.392Z,99.90
2019-02-15T10:53:37.681Z,99.90
2019-02-15T10:56:08.844Z,99.90
2019-02-15T10:58:40.038Z,99.30
2019-02-15T11:01:12.279Z,99.90
2019-02-15T11:03:43.505Z,99.70
2019-02-15T11:06:14.686Z,97.50
2019-02-15T11:08:45.824Z,99.90
2019-02-15T11:11:16.956Z,99.40
2019-02-15T11:13:48.065Z,98.50
2019-02-15T11:16:19.172Z,94.90
2019-02-15T11:18:50.357Z,95.90
2019-02-15T11:21:21.499Z,94.60
2019-02-15T11:23:52.615Z,95.20
2019-02-15T11:26:24.964Z,92.70
2019-02-15T11:28:57.231Z,92.10
2019-02-15T11:31:28.315Z,94.00
2019-02-15T11:33:59.423Z,93.70
2019-02-15T11:36:30.543Z,92.10
2019-02-15T11:39:02.730Z,92.80
2019-02-15T11:41:34.457Z,94.00
2019-02-15T11:44:05.557Z,91.30
2019-02-15T11:46:36.721Z,90.90
2019-02-15T11:49:07.829Z,88.40
2019-02-15T11:51:38.970Z,91.00
2019-02-15T11:54:10.109Z,89.40
2019-02-15T11:56:41.348Z,89.30
2019-02-15T11:59:12.441Z,87.10
2019-02-15T12:01:43.570Z,86.20
2019-02-15T12:04:14.697Z,87.30
2019-02-15T12:06:45.799Z,89.60
2019-02-15T12:09:16.909Z,89.90
2019-02-15T12:11:48.091Z,86.90
2019-02-15T12:14:19.381Z,85.70
2019-02-15T12:16:50.575Z,85.00
2019-02-15T12:19:21.688Z,83.90
2019-02-15T12:21:52.770Z,84.20
2019-02-15T12:24:23.976Z,90.00
2019-02-15T12:26:55.103Z,88.40
2019-02-15T12:29:26.309Z,84.50
2019-02-15T12:31:57.469Z,85.40
2019-02-15T12:34:28.675Z,80.10
2019-02-15T12:37:00.816Z,84.80
2019-02-15T12:39:31.951Z,81.10
2019-02-15T12:42:03.061Z,81.90
2019-02-15T12:44:35.222Z,83.80
2019-02-15T12:47:14.615Z,80.60
2019-02-15T12:49:39.117Z,83.90
2019-02-15T12:52:10.299Z,77.20
2019-02-15T12:54:41.403Z,79.70
2019-02-15T12:57:12.528Z,80.10
2019-02-15T12:59:43.626Z,79.00
2019-02-15T13:02:14.818Z,76.50
2019-02-15T13:04:46.350Z,77.50
2019-02-15T13:07:17.525Z,78.00
2019-02-15T13:09:48.652Z,76.50
2019-02-15T13:12:19.744Z,76.40
2019-02-15T13:14:50.964Z,79.20
2019-02-15T13:17:24.770Z,73.30
2019-02-15T13:19:54.879Z,76.40
2019-02-15T13:22:25.948Z,74.10
2019-02-15T13:24:57.134Z,77.00
2019-02-15T13:27:28.265Z,79.80
2019-02-15T13:29:59.356Z,80.10
2019-02-15T13:32:30.468Z,77.70
2019-02-15T13:35:01.680Z,78.80
2019-02-15T13:37:32.879Z,80.50
2019-02-15T13:40:05.549Z,81.10
2019-02-15T13:42:36.723Z,75.40
2019-02-15T13:45:09.448Z,73.80
2019-02-15T13:47:40.509Z,74.20
2019-02-15T13:50:12.406Z,74.80
2019-02-15T13:52:43.677Z,74.00
2019-02-15T13:55:15.321Z,79.30
2019-02-15T13:57:46.469Z,77.00
2019-02-15T14:00:17.867Z,73.80
2019-02-15T14:02:49.148Z,78.80
2019-02-15T14:05:20.305Z,74.00
2019-02-15T14:07:51.536Z,75.30
2019-02-15T14:10:22.665Z,75.60
2019-02-15T14:12:54.049Z,73.20
2019-02-15T14:15:25.292Z,72.30
2019-02-15T14:17:56.511Z,73.30
2019-02-15T14:20:27.707Z,73.80
2019-02-15T14:22:59.123Z,73.70
2019-02-15T14:25:30.329Z,72.80
2019-02-15T14:28:01.621Z,74.90
2019-02-15T14:30:32.793Z,74.70
2019-02-15T14:33:03.900Z,71.00
2019-02-15T14:35:35.092Z,72.40
2019-02-15T14:38:06.267Z,73.80
2019-02-15T14:40:37.438Z,72.70
2019-02-15T14:43:08.736Z,75.60
2019-02-15T14:45:39.913Z,73.30
2019-02-15T14:48:12.124Z,72.70
2019-02-15T14:50:43.255Z,73.80
2019-02-15T14:53:14.358Z,69.90
2019-02-15T14:55:45.472Z,70.40
2019-02-15T14:58:16.605Z,70.20
2019-02-15T15:00:47.776Z,71.30
2019-02-15T15:03:19.154Z,69.20
2019-02-15T15:05:50.314Z,70.10
2019-02-15T15:08:21.387Z,69.40
2019-02-15T15:10:52.482Z,71.80
2019-02-15T15:13:23.587Z,71.00
2019-02-15T15:15:54.704Z,70.00
2019-02-15T15:18:26.088Z,73.20
2019-02-15T15:20:57.788Z,73.90
2019-02-15T15:23:29.184Z,78.70
2019-02-15T15:26:00.698Z,77.50
2019-02-15T15:28:31.849Z,83.40
2019-02-15T15:31:02.956Z,84.60
2019-02-15T15:33:34.153Z,87.10
2019-02-15T15:36:05.478Z,88.70
2019-02-15T15:38:37.682Z,89.10
2019-02-15T15:41:08.807Z,91.60
2019-02-15T15:43:40.050Z,94.90
2019-02-15T15:46:11.304Z,95.20
2019-02-15T15:48:42.501Z,96.10
2019-02-15T15:51:13.778Z,96.60
2019-02-15T15:53:45.004Z,97.30
2019-02-15T15:56:16.169Z,97.90
2019-02-15T15:58:47.292Z,99.30
2019-02-15T16:01:18.506Z,95.60
2019-02-15T16:03:49.671Z,94.00
2019-02-15T16:06:24.382Z,94.20
2019-02-15T16:08:53.778Z,94.30
2019-02-15T16:11:25.027Z,95.50
2019-02-15T16:13:56.197Z,96.00
2019-02-15T16:16:27.348Z,96.20
2019-02-15T16:18:58.446Z,97.00
2019-02-15T16:21:30.015Z,98.00
2019-02-15T16:24:01.565Z,98.40
2019-02-15T16:26:32.669Z,98.70
2019-02-15T16:29:04.010Z,99.40
2019-02-15T16:31:35.224Z,99.50
2019-02-15T16:34:06.816Z,99.60
2019-02-15T16:36:38.262Z,99.90
2019-02-15T16:39:09.868Z,99.90
2019-02-15T16:42:09.396Z,99.90
2019-02-15T16:44:40.758Z,99.90
2019-02-15T16:47:12.017Z,99.90
2019-02-15T16:49:43.161Z,99.90
2019-02-15T16:52:14.628Z,99.90
2019-02-15T16:54:45.968Z,99.90
2019-02-15T16:57:18.134Z,99.90
2019-02-15T16:59:52.746Z,99.90
2019-02-15T17:02:25.373Z,99.90
2019-02-15T17:04:56.808Z,99.90
2019-02-15T17:07:28.076Z,99.90
2019-02-15T17:10:00.352Z,99.90
2019-02-15T17:12:31.807Z,99.90
2019-02-15T17:15:02.970Z,99.90
2019-02-15T17:17:34.720Z,99.90
2019-02-15T17:20:06.634Z,99.90
2019-02-15T17:22:39.481Z,99.90
2019-02-15T17:25:11.295Z,99.90
2019-02-15T17:27:42.543Z,99.90
2019-02-15T17:30:14.647Z,99.90
2019-02-15T17:32:45.806Z,99.90
2019-02-15T17:35:17.041Z,99.90
2019-02-15T17:37:48.553Z,99.90
2019-02-15T17:40:19.820Z,99.90
2019-02-15T17:42:51.023Z,99.90
2019-02-15T17:45:22.262Z,99.90
2019-02-15T17:47:53.577Z,99.90
2019-02-15T17:50:24.689Z,99.90
2019-02-15T17:53:02.148Z,99.90
2019-02-15T17:55:33.360Z,99.90
2019-02-15T17:58:04.636Z,99.90
2019-02-15T18:00:37.556Z,99.90
2019-02-15T18:03:09.016Z,99.90
2019-02-15T18:05:40.209Z,99.90
2019-02-15T18:08:11.734Z,99.90
2019-02-15T18:10:42.938Z,99.90
2019-02-15T18:13:14.071Z,99.90
2019-02-15T18:15:45.321Z,99.90
2019-02-15T18:18:16.513Z,99.90
2019-02-15T18:20:47.823Z,99.90
2019-02-15T18:23:19.138Z,99.90
2019-02-15T18:25:57.818Z,99.90
2019-02-15T18:28:29.101Z,99.90
2019-02-15T18:31:00.360Z,99.90
2019-02-15T18:33:31.917Z,99.90
2019-02-15T18:36:03.097Z,99.90
2019-02-15T18:38:34.284Z,99.90
2019-02-15T18:41:13.627Z,99.90
2019-02-15T18:43:40.872Z,99.90
2019-02-15T18:46:12.251Z,99.90
2019-02-15T18:48:43.734Z,99.90
2019-02-15T18:51:15.310Z,99.90
2019-02-15T18:53:46.979Z,99.90
2019-02-15T18:56:18.614Z,99.90
2019-02-15T18:58:49.877Z,99.90
2019-02-15T19:01:21.228Z,99.90
2019-02-15T19:03:52.579Z,99.90
2019-02-15T19:06:23.872Z,99.90
2019-02-15T19:08:55.208Z,99.90
2019-02-15T19:11:26.345Z,99.90
2019-02-15T19:13:57.716Z,99.90
2019-02-15T19:16:28.991Z,99.90
2019-02-15T19:19:00.179Z,99.90
2019-02-15T19:21:31.534Z,99.90
2019-02-15T19:24:03.698Z,99.90
2019-02-15T19:26:36.184Z,99.90
2019-02-15T19:29:07.515Z,99.90
2019-02-15T19:31:38.752Z,99.90
2019-02-15T19:34:09.909Z,99.90
2019-02-15T19:36:41.097Z,99.90
2019-02-15T19:39:12.232Z,99.90
2019-02-15T19:41:43.644Z,99.90
2019-02-15T19:44:15.770Z,99.90
2019-02-15T19:46:47.050Z,99.90
2019-02-15T19:49:18.261Z,99.90
2019-02-15T19:51:49.518Z,99.90
2019-02-15T19:54:20.783Z,99.90
2019-02-15T19:56:52.002Z,99.90
2019-02-15T19:59:23.142Z,99.90
2019-02-15T20:01:54.223Z,99.90
2019-02-15T20:04:25.845Z,99.90
2019-02-15T20:07:05.518Z,99.90
2019-02-15T20:09:38.197Z,99.90
2019-02-15T20:12:09.350Z,99.90
2019-02-15T20:14:40.655Z,99.90
2019-02-15T20:17:11.988Z,99.90
2019-02-15T20:19:48.782Z,99.90
2019-02-15T20:22:16.153Z,99.90
2019-02-15T20:24:48.674Z,99.90
2019-02-15T20:27:20.857Z,99.90
2019-02-15T20:29:52.588Z,99.90
2019-02-15T20:32:23.796Z,99.90
2019-02-15T20:34:55.144Z,99.90
2019-02-15T20:37:26.944Z,99.90
2019-02-15T20:39:58.224Z,99.90
2019-02-15T20:42:29.553Z,99.90
2019-02-15T20:45:01.257Z,99.90
2019-02-15T20:47:32.504Z,99.90
2019-02-15T20:50:04.653Z,99.90
2019-02-15T20:52:36.093Z,99.90
2019-02-15T20:55:08.775Z,99.90
2019-02-15T20:57:40.082Z,99.90
2019-02-15T21:00:14.485Z,99.90
2019-02-15T21:02:45.767Z,99.90
2019-02-15T21:05:17.183Z,99.90
2019-02-15T21:07:48.441Z,99.90
2019-02-15T21:10:19.595Z,99.90
2019-02-15T21:12:50.976Z,99.90
2019-02-15T21:15:24.192Z,99.90
2019-02-15T21:17:55.279Z,99.90
2019-02-15T21:20:26.595Z,99.90
2019-02-15T21:22:58.006Z,99.90
2019-02-15T21:25:37.423Z,99.90
2019-02-15T21:28:08.622Z,99.90
2019-02-15T21:30:39.821Z,99.90
2019-02-15T21:33:11.059Z,99.90
2019-02-15T21:35:42.322Z,99.90
2019-02-15T21:38:13.543Z,99.90
2019-02-15T21:40:44.947Z,99.90
2019-02-15T21:43:16.316Z,99.90
2019-02-15T21:45:48.703Z,99.90
2019-02-15T21:48:22.248Z,99.90
2019-02-15T21:50:53.705Z,99.90
2019-02-15T21:53:26.519Z,99.90
2019-02-15T21:55:57.770Z,99.90
2019-02-15T21:58:29.498Z,99.90
2019-02-15T22:01:01.485Z,99.90
2019-02-15T22:03:33.048Z,99.90
2019-02-15T22:06:04.232Z,99.90
2019-02-15T22:08:35.521Z,99.90
2019-02-15T22:11:07.022Z,99.90
2019-02-15T22:13:38.441Z,99.90
2019-02-15T22:16:14.153Z,99.90
2019-02-15T22:18:45.395Z,99.90
2019-02-15T22:21:17.896Z,99.90
2019-02-15T22:23:49.407Z,99.90
2019-02-15T22:26:20.639Z,99.90
2019-02-15T22:28:51.927Z,99.90
2019-02-15T22:31:24.268Z,99.90
2019-02-15T22:33:55.810Z,99.90
2019-02-15T22:36:27.214Z,99.90
2019-02-15T22:38:58.455Z,99.90
2019-02-15T22:41:29.867Z,99.90
2019-02-15T22:44:01.341Z,99.90
2019-02-15T22:46:32.678Z,99.90
2019-02-15T22:49:04.061Z,99.90
2019-02-15T22:51:35.546Z,99.90
2019-02-15T22:54:07.117Z,99.90
2019-02-15T22:56:38.376Z,99.90
2019-02-15T22:59:09.661Z,99.90
2019-02-15T23:01:41.215Z,99.90
2019-02-15T23:04:13.091Z,99.90
2019-02-15T23:06:44.467Z,99.90
2019-02-15T23:09:27.901Z,99.90
2019-02-15T23:11:59.282Z,99.90
2019-02-15T23:14:30.462Z,99.90
2019-02-15T23:17:02.024Z,99.90
2019-02-15T23:19:33.499Z,99.90
2019-02-15T23:22:04.964Z,99.90
2019-02-15T23:24:36.451Z,99.90
2019-02-15T23:27:07.735Z,99.90
2019-02-15T23:29:39.038Z,99.90
2019-02-15T23:32:11.619Z,99.90
2019-02-15T23:34:42.844Z,99.90
2019-02-15T23:37:14.024Z,99.90
2019-02-15T23:39:45.245Z,99.90
2019-02-15T23:42:16.533Z,99.90
2019-02-15T23:44:47.718Z,99.90
2019-02-15T23:47:18.971Z,99.90
2019-02-15T23:49:50.186Z,99.90
2019-02-15T23:52:21.406Z,99.90
2019-02-15T23:54:53.882Z,99.90
2019-02-15T23:57:25.724Z,99.90
2019-02-15T23:59:57.378Z,99.90
